sensor_id;sensor_type;location;lat;lon;timestamp;temperature;humidity
40053;DHT22;25758;48.200;16.338;2023-04-24T00:01:42;16.30;99.90
40053;DHT22;25758;48.200;16.338;2023-04-24T00:04:08;16.30;99.90
40053;DHT22;25758;48.200;16.338;2023-04-24T00:06:39;16.30;99.90
40053;DHT22;25758;48.200;16.338;2023-04-24T00:09:08;16.20;99.90
40053;DHT22;25758;48.200;16.338;2023-04-24T00:11:35;16.20;99.90
40053;DHT22;25758;48.200;16.338;2023-04-24T00:14:02;16.20;99.90
40053;DHT22;25758;48.200;16.338;2023-04-24T00:16:28;16.20;99.90
40053;DHT22;25758;48.200;16.338;2023-04-24T00:18:54;16.30;99.90
40053;DHT22;25758;48.200;16.338;2023-04-24T00:21:20;16.30;99.90
40053;DHT22;25758;48.200;16.338;2023-04-24T00:23:47;16.30;99.90
40053;DHT22;25758;48.200;16.338;2023-04-24T00:26:13;16.30;99.90
40053;DHT22;25758;48.200;16.338;2023-04-24T00:28:39;16.30;99.90
40053;DHT22;25758;48.200;16.338;2023-04-24T00:31:05;16.30;99.90
40053;DHT22;25758;48.200;16.338;2023-04-24T00:33:31;16.30;99.90
40053;DHT22;25758;48.200;16.338;2023-04-24T00:35:57;16.20;99.90
40053;DHT22;25758;48.200;16.338;2023-04-24T00:38:22;16.20;99.90
40053;DHT22;25758;48.200;16.338;2023-04-24T00:40:48;16.20;99.90
40053;DHT22;25758;48.200;16.338;2023-04-24T00:43:16;16.20;99.90
40053;DHT22;25758;48.200;16.338;2023-04-24T00:45:41;16.20;99.90
40053;DHT22;25758;48.200;16.338;2023-04-24T00:48:07;16.20;99.90
40053;DHT22;25758;48.200;16.338;2023-04-24T00:50:35;16.30;99.90
40053;DHT22;25758;48.200;16.338;2023-04-24T00:53:01;16.30;99.90
40053;DHT22;25758;48.200;16.338;2023-04-24T00:55:26;16.30;99.90
40053;DHT22;25758;48.200;16.338;2023-04-24T00:57:52;16.30;99.90
40053;DHT22;25758;48.200;16.338;2023-04-24T01:00:18;16.30;99.90
40053;DHT22;25758;48.200;16.338;2023-04-24T01:02:44;16.30;99.90
40053;DHT22;25758;48.200;16.338;2023-04-24T01:05:15;16.30;99.90
40053;DHT22;25758;48.200;16.338;2023-04-24T01:07:44;16.30;99.90
40053;DHT22;25758;48.200;16.338;2023-04-24T01:10:11;16.30;99.90
40053;DHT22;25758;48.200;16.338;2023-04-24T01:12:38;16.30;99.90
40053;DHT22;25758;48.200;16.338;2023-04-24T01:15:04;16.30;99.90
40053;DHT22;25758;48.200;16.338;2023-04-24T01:17:31;16.30;99.90
40053;DHT22;25758;48.200;16.338;2023-04-24T01:19:58;16.30;99.90
40053;DHT22;25758;48.200;16.338;2023-04-24T01:22:25;16.30;99.90
40053;DHT22;25758;48.200;16.338;2023-04-24T01:24:52;16.30;99.90
40053;DHT22;25758;48.200;16.338;2023-04-24T01:27:19;16.30;99.90
40053;DHT22;25758;48.200;16.338;2023-04-24T01:29:45;16.20;99.90
40053;DHT22;25758;48.200;16.338;2023-04-24T01:32:13;16.20;99.90
40053;DHT22;25758;48.200;16.338;2023-04-24T01:34:39;16.20;99.90
40053;DHT22;25758;48.200;16.338;2023-04-24T01:37:05;16.20;99.90
40053;DHT22;25758;48.200;16.338;2023-04-24T01:39:32;16.20;99.90
40053;DHT22;25758;48.200;16.338;2023-04-24T01:41:59;16.20;99.90
40053;DHT22;25758;48.200;16.338;2023-04-24T01:44:25;16.10;99.90
40053;DHT22;25758;48.200;16.338;2023-04-24T01:46:51;16.20;99.90
40053;DHT22;25758;48.200;16.338;2023-04-24T01:49:19;16.20;99.90
40053;DHT22;25758;48.200;16.338;2023-04-24T01:51:45;16.10;99.90
40053;DHT22;25758;48.200;16.338;2023-04-24T01:54:10;16.10;99.90
40053;DHT22;25758;48.200;16.338;2023-04-24T01:56:36;16.10;99.90
40053;DHT22;25758;48.200;16.338;2023-04-24T01:59:06;16.10;99.90
40053;DHT22;25758;48.200;16.338;2023-04-24T02:01:35;16.10;99.90
40053;DHT22;25758;48.200;16.338;2023-04-24T02:04:02;16.00;99.90
40053;DHT22;25758;48.200;16.338;2023-04-24T02:06:27;15.90;99.90
40053;DHT22;25758;48.200;16.338;2023-04-24T02:08:53;15.80;99.90
40053;DHT22;25758;48.200;16.338;2023-04-24T02:11:18;15.70;99.90
40053;DHT22;25758;48.200;16.338;2023-04-24T02:13:44;15.70;99.90
40053;DHT22;25758;48.200;16.338;2023-04-24T02:16:10;15.70;99.90
40053;DHT22;25758;48.200;16.338;2023-04-24T02:18:36;15.60;99.90
40053;DHT22;25758;48.200;16.338;2023-04-24T02:21:02;15.60;99.90
40053;DHT22;25758;48.200;16.338;2023-04-24T02:23:27;15.60;99.90
40053;DHT22;25758;48.200;16.338;2023-04-24T02:25:53;15.50;99.90
40053;DHT22;25758;48.200;16.338;2023-04-24T02:28:19;15.50;99.90
40053;DHT22;25758;48.200;16.338;2023-04-24T02:30:45;15.50;99.90
40053;DHT22;25758;48.200;16.338;2023-04-24T02:33:11;15.40;99.90
40053;DHT22;25758;48.200;16.338;2023-04-24T02:35:37;15.40;99.90
40053;DHT22;25758;48.200;16.338;2023-04-24T02:38:03;15.30;99.90
40053;DHT22;25758;48.200;16.338;2023-04-24T02:40:29;15.30;99.90
40053;DHT22;25758;48.200;16.338;2023-04-24T02:42:55;15.30;99.90
40053;DHT22;25758;48.200;16.338;2023-04-24T02:45:20;15.30;99.90
40053;DHT22;25758;48.200;16.338;2023-04-24T02:47:46;15.30;99.90
40053;DHT22;25758;48.200;16.338;2023-04-24T02:50:12;15.30;99.90
40053;DHT22;25758;48.200;16.338;2023-04-24T02:52:37;15.20;99.90
40053;DHT22;25758;48.200;16.338;2023-04-24T02:55:03;15.20;99.90
40053;DHT22;25758;48.200;16.338;2023-04-24T02:57:29;15.20;99.90
40053;DHT22;25758;48.200;16.338;2023-04-24T02:59:55;15.20;99.90
40053;DHT22;25758;48.200;16.338;2023-04-24T03:02:21;15.10;99.90
40053;DHT22;25758;48.200;16.338;2023-04-24T03:04:46;15.10;99.90
40053;DHT22;25758;48.200;16.338;2023-04-24T03:07:13;15.20;99.90
40053;DHT22;25758;48.200;16.338;2023-04-24T03:09:40;15.10;99.90
40053;DHT22;25758;48.200;16.338;2023-04-24T03:12:06;15.10;99.90
40053;DHT22;25758;48.200;16.338;2023-04-24T03:14:31;15.10;99.90
40053;DHT22;25758;48.200;16.338;2023-04-24T03:16:57;15.10;99.90
40053;DHT22;25758;48.200;16.338;2023-04-24T03:19:23;15.10;99.90
40053;DHT22;25758;48.200;16.338;2023-04-24T03:21:49;15.00;99.90
40053;DHT22;25758;48.200;16.338;2023-04-24T03:24:15;14.90;99.90
40053;DHT22;25758;48.200;16.338;2023-04-24T03:26:41;14.90;99.90
40053;DHT22;25758;48.200;16.338;2023-04-24T03:29:07;14.90;99.90
40053;DHT22;25758;48.200;16.338;2023-04-24T03:31:32;14.90;99.90
40053;DHT22;25758;48.200;16.338;2023-04-24T03:33:58;14.90;99.90
40053;DHT22;25758;48.200;16.338;2023-04-24T03:36:23;14.90;99.90
40053;DHT22;25758;48.200;16.338;2023-04-24T03:38:49;14.80;99.90
40053;DHT22;25758;48.200;16.338;2023-04-24T03:41:15;14.80;99.90
40053;DHT22;25758;48.200;16.338;2023-04-24T03:43:41;14.80;99.90
40053;DHT22;25758;48.200;16.338;2023-04-24T03:46:06;14.80;99.90
40053;DHT22;25758;48.200;16.338;2023-04-24T03:48:34;14.80;99.90
40053;DHT22;25758;48.200;16.338;2023-04-24T03:51:00;14.80;99.90
40053;DHT22;25758;48.200;16.338;2023-04-24T03:53:26;14.80;99.90
40053;DHT22;25758;48.200;16.338;2023-04-24T03:55:53;14.80;99.90
40053;DHT22;25758;48.200;16.338;2023-04-24T03:58:18;14.80;99.90
40053;DHT22;25758;48.200;16.338;2023-04-24T04:00:44;14.80;99.90
40053;DHT22;25758;48.200;16.338;2023-04-24T04:03:12;14.80;99.90
40053;DHT22;25758;48.200;16.338;2023-04-24T04:05:39;14.80;99.90
40053;DHT22;25758;48.200;16.338;2023-04-24T04:08:04;14.80;99.90
40053;DHT22;25758;48.200;16.338;2023-04-24T04:10:30;14.80;99.90
40053;DHT22;25758;48.200;16.338;2023-04-24T04:12:56;14.80;99.90
40053;DHT22;25758;48.200;16.338;2023-04-24T04:15:21;14.80;99.90
40053;DHT22;25758;48.200;16.338;2023-04-24T04:17:47;14.80;99.90
40053;DHT22;25758;48.200;16.338;2023-04-24T04:20:13;14.80;99.90
40053;DHT22;25758;48.200;16.338;2023-04-24T04:22:38;14.80;99.90
40053;DHT22;25758;48.200;16.338;2023-04-24T04:25:05;14.80;99.90
40053;DHT22;25758;48.200;16.338;2023-04-24T04:27:32;14.80;99.90
40053;DHT22;25758;48.200;16.338;2023-04-24T04:30:01;14.80;99.90
40053;DHT22;25758;48.200;16.338;2023-04-24T04:32:31;14.80;99.90
40053;DHT22;25758;48.200;16.338;2023-04-24T04:34:58;14.80;99.90
40053;DHT22;25758;48.200;16.338;2023-04-24T04:37:32;14.80;99.90
40053;DHT22;25758;48.200;16.338;2023-04-24T04:40:02;14.80;99.90
40053;DHT22;25758;48.200;16.338;2023-04-24T04:42:37;14.80;99.90
40053;DHT22;25758;48.200;16.338;2023-04-24T04:45:07;14.80;99.90
40053;DHT22;25758;48.200;16.338;2023-04-24T04:47:37;14.80;99.90
40053;DHT22;25758;48.200;16.338;2023-04-24T04:50:03;14.80;99.90
40053;DHT22;25758;48.200;16.338;2023-04-24T04:52:30;14.80;99.90
40053;DHT22;25758;48.200;16.338;2023-04-24T04:54:55;14.80;99.90
40053;DHT22;25758;48.200;16.338;2023-04-24T04:57:21;14.90;99.90
40053;DHT22;25758;48.200;16.338;2023-04-24T04:59:47;14.90;99.90
40053;DHT22;25758;48.200;16.338;2023-04-24T05:02:13;14.90;99.90
40053;DHT22;25758;48.200;16.338;2023-04-24T05:04:38;14.90;99.90
40053;DHT22;25758;48.200;16.338;2023-04-24T05:07:04;14.90;99.90
40053;DHT22;25758;48.200;16.338;2023-04-24T05:09:30;14.90;99.90
40053;DHT22;25758;48.200;16.338;2023-04-24T05:11:56;14.90;99.90
40053;DHT22;25758;48.200;16.338;2023-04-24T05:14:22;14.90;99.90
40053;DHT22;25758;48.200;16.338;2023-04-24T05:16:48;14.90;99.90
40053;DHT22;25758;48.200;16.338;2023-04-24T05:19:13;15.00;99.90
40053;DHT22;25758;48.200;16.338;2023-04-24T05:21:40;15.00;99.90
40053;DHT22;25758;48.200;16.338;2023-04-24T05:24:06;15.10;99.90
40053;DHT22;25758;48.200;16.338;2023-04-24T05:26:32;15.10;99.90
40053;DHT22;25758;48.200;16.338;2023-04-24T05:28:58;15.10;99.90
40053;DHT22;25758;48.200;16.338;2023-04-24T05:31:24;15.20;99.90
40053;DHT22;25758;48.200;16.338;2023-04-24T05:33:50;15.20;99.90
40053;DHT22;25758;48.200;16.338;2023-04-24T05:36:16;15.20;99.90
40053;DHT22;25758;48.200;16.338;2023-04-24T05:38:41;15.30;99.90
40053;DHT22;25758;48.200;16.338;2023-04-24T05:41:07;15.30;99.90
40053;DHT22;25758;48.200;16.338;2023-04-24T05:43:33;15.30;99.90
40053;DHT22;25758;48.200;16.338;2023-04-24T05:45:58;15.30;99.90
40053;DHT22;25758;48.200;16.338;2023-04-24T05:48:24;15.40;99.90
40053;DHT22;25758;48.200;16.338;2023-04-24T05:50:50;15.30;99.90
40053;DHT22;25758;48.200;16.338;2023-04-24T05:53:18;15.40;99.90
40053;DHT22;25758;48.200;16.338;2023-04-24T05:55:43;15.40;99.90
40053;DHT22;25758;48.200;16.338;2023-04-24T05:58:09;15.50;99.90
40053;DHT22;25758;48.200;16.338;2023-04-24T06:00:35;15.50;99.90
40053;DHT22;25758;48.200;16.338;2023-04-24T06:03:01;15.50;99.90
40053;DHT22;25758;48.200;16.338;2023-04-24T06:05:29;15.50;99.90
40053;DHT22;25758;48.200;16.338;2023-04-24T06:07:55;15.50;99.90
40053;DHT22;25758;48.200;16.338;2023-04-24T06:10:21;15.50;99.90
40053;DHT22;25758;48.200;16.338;2023-04-24T06:12:47;15.60;99.90
40053;DHT22;25758;48.200;16.338;2023-04-24T06:15:12;15.60;99.90
40053;DHT22;25758;48.200;16.338;2023-04-24T06:17:38;15.70;99.90
40053;DHT22;25758;48.200;16.338;2023-04-24T06:20:04;15.70;99.90
40053;DHT22;25758;48.200;16.338;2023-04-24T06:22:31;15.70;99.90
40053;DHT22;25758;48.200;16.338;2023-04-24T06:24:57;15.70;99.90
40053;DHT22;25758;48.200;16.338;2023-04-24T06:27:22;15.80;99.90
40053;DHT22;25758;48.200;16.338;2023-04-24T06:29:48;15.80;99.90
40053;DHT22;25758;48.200;16.338;2023-04-24T06:32:21;15.80;99.90
40053;DHT22;25758;48.200;16.338;2023-04-24T06:34:47;15.80;99.90
40053;DHT22;25758;48.200;16.338;2023-04-24T06:37:12;15.80;99.90
40053;DHT22;25758;48.200;16.338;2023-04-24T06:39:38;15.80;99.90
40053;DHT22;25758;48.200;16.338;2023-04-24T06:42:03;15.80;99.90
40053;DHT22;25758;48.200;16.338;2023-04-24T06:44:29;15.90;99.90
40053;DHT22;25758;48.200;16.338;2023-04-24T06:46:55;15.90;99.90
40053;DHT22;25758;48.200;16.338;2023-04-24T06:49:20;15.90;99.90
40053;DHT22;25758;48.200;16.338;2023-04-24T06:51:46;15.90;99.90
40053;DHT22;25758;48.200;16.338;2023-04-24T06:54:12;16.00;99.90
40053;DHT22;25758;48.200;16.338;2023-04-24T06:56:38;16.00;99.90
40053;DHT22;25758;48.200;16.338;2023-04-24T06:59:03;16.00;99.90
40053;DHT22;25758;48.200;16.338;2023-04-24T07:01:29;16.10;99.90
40053;DHT22;25758;48.200;16.338;2023-04-24T07:03:55;16.10;99.90
40053;DHT22;25758;48.200;16.338;2023-04-24T07:06:20;16.10;99.90
40053;DHT22;25758;48.200;16.338;2023-04-24T07:08:48;16.10;99.90
40053;DHT22;25758;48.200;16.338;2023-04-24T07:11:14;16.10;99.90
40053;DHT22;25758;48.200;16.338;2023-04-24T07:13:39;16.10;99.90
40053;DHT22;25758;48.200;16.338;2023-04-24T07:16:07;16.10;99.90
40053;DHT22;25758;48.200;16.338;2023-04-24T07:18:34;16.10;99.90
40053;DHT22;25758;48.200;16.338;2023-04-24T07:20:59;16.10;99.90
40053;DHT22;25758;48.200;16.338;2023-04-24T07:23:26;16.10;99.90
40053;DHT22;25758;48.200;16.338;2023-04-24T07:25:51;16.20;99.90
40053;DHT22;25758;48.200;16.338;2023-04-24T07:28:17;16.20;99.90
40053;DHT22;25758;48.200;16.338;2023-04-24T07:30:43;16.10;99.90
40053;DHT22;25758;48.200;16.338;2023-04-24T07:33:09;16.20;99.90
40053;DHT22;25758;48.200;16.338;2023-04-24T07:35:36;16.10;99.90
40053;DHT22;25758;48.200;16.338;2023-04-24T07:38:02;16.10;99.90
40053;DHT22;25758;48.200;16.338;2023-04-24T07:40:28;16.10;99.90
40053;DHT22;25758;48.200;16.338;2023-04-24T07:42:54;16.20;99.90
40053;DHT22;25758;48.200;16.338;2023-04-24T07:45:19;16.20;99.90
40053;DHT22;25758;48.200;16.338;2023-04-24T07:47:45;16.30;99.90
40053;DHT22;25758;48.200;16.338;2023-04-24T07:50:12;16.50;99.90
40053;DHT22;25758;48.200;16.338;2023-04-24T07:52:38;16.60;99.90
40053;DHT22;25758;48.200;16.338;2023-04-24T07:55:04;16.50;99.90
40053;DHT22;25758;48.200;16.338;2023-04-24T07:57:30;16.50;99.90
40053;DHT22;25758;48.200;16.338;2023-04-24T07:59:56;16.50;99.90
40053;DHT22;25758;48.200;16.338;2023-04-24T08:02:21;16.30;99.90
40053;DHT22;25758;48.200;16.338;2023-04-24T08:04:52;16.30;99.90
40053;DHT22;25758;48.200;16.338;2023-04-24T08:07:18;16.20;99.90
40053;DHT22;25758;48.200;16.338;2023-04-24T08:09:44;16.20;99.90
40053;DHT22;25758;48.200;16.338;2023-04-24T08:12:09;16.20;99.90
40053;DHT22;25758;48.200;16.338;2023-04-24T08:14:35;16.10;99.90
40053;DHT22;25758;48.200;16.338;2023-04-24T08:17:01;16.00;99.90
40053;DHT22;25758;48.200;16.338;2023-04-24T08:19:27;16.00;99.90
40053;DHT22;25758;48.200;16.338;2023-04-24T08:21:53;16.00;99.90
40053;DHT22;25758;48.200;16.338;2023-04-24T08:24:19;15.90;99.90
40053;DHT22;25758;48.200;16.338;2023-04-24T08:26:44;15.90;99.90
40053;DHT22;25758;48.200;16.338;2023-04-24T08:29:10;15.90;99.90
40053;DHT22;25758;48.200;16.338;2023-04-24T08:31:36;15.90;99.90
40053;DHT22;25758;48.200;16.338;2023-04-24T08:34:01;15.90;99.90
40053;DHT22;25758;48.200;16.338;2023-04-24T08:36:27;15.80;99.90
40053;DHT22;25758;48.200;16.338;2023-04-24T08:38:53;15.80;99.90
40053;DHT22;25758;48.200;16.338;2023-04-24T08:41:19;15.80;99.90
40053;DHT22;25758;48.200;16.338;2023-04-24T08:43:47;15.70;99.90
40053;DHT22;25758;48.200;16.338;2023-04-24T08:46:15;15.60;99.90
40053;DHT22;25758;48.200;16.338;2023-04-24T08:48:42;15.50;99.90
40053;DHT22;25758;48.200;16.338;2023-04-24T08:51:08;15.40;99.90
40053;DHT22;25758;48.200;16.338;2023-04-24T08:53:35;15.20;99.90
40053;DHT22;25758;48.200;16.338;2023-04-24T08:56:02;15.20;99.90
40053;DHT22;25758;48.200;16.338;2023-04-24T08:58:28;15.10;99.90
40053;DHT22;25758;48.200;16.338;2023-04-24T09:00:55;15.00;99.90
40053;DHT22;25758;48.200;16.338;2023-04-24T09:03:21;15.00;99.90
40053;DHT22;25758;48.200;16.338;2023-04-24T09:05:48;15.00;99.90
40053;DHT22;25758;48.200;16.338;2023-04-24T09:08:18;14.90;99.90
40053;DHT22;25758;48.200;16.338;2023-04-24T09:10:44;14.90;99.90
40053;DHT22;25758;48.200;16.338;2023-04-24T09:13:10;14.90;99.90
40053;DHT22;25758;48.200;16.338;2023-04-24T09:15:39;14.80;99.90
40053;DHT22;25758;48.200;16.338;2023-04-24T09:18:05;14.80;99.90
40053;DHT22;25758;48.200;16.338;2023-04-24T09:20:31;14.70;99.90
40053;DHT22;25758;48.200;16.338;2023-04-24T09:22:58;14.80;99.90
40053;DHT22;25758;48.200;16.338;2023-04-24T09:25:34;14.70;99.90
40053;DHT22;25758;48.200;16.338;2023-04-24T09:28:02;14.70;99.90
40053;DHT22;25758;48.200;16.338;2023-04-24T09:30:29;14.60;99.90
40053;DHT22;25758;48.200;16.338;2023-04-24T09:33:14;14.60;99.90
40053;DHT22;25758;48.200;16.338;2023-04-24T09:35:41;14.50;99.90
40053;DHT22;25758;48.200;16.338;2023-04-24T09:38:08;14.50;99.90
40053;DHT22;25758;48.200;16.338;2023-04-24T09:40:34;14.50;99.90
40053;DHT22;25758;48.200;16.338;2023-04-24T09:43:00;14.50;99.90
40053;DHT22;25758;48.200;16.338;2023-04-24T09:45:34;14.50;99.90
40053;DHT22;25758;48.200;16.338;2023-04-24T09:48:00;14.50;99.90
40053;DHT22;25758;48.200;16.338;2023-04-24T09:50:26;14.50;99.90
40053;DHT22;25758;48.200;16.338;2023-04-24T09:53:02;14.50;99.90
40053;DHT22;25758;48.200;16.338;2023-04-24T09:55:29;14.40;99.90
40053;DHT22;25758;48.200;16.338;2023-04-24T09:57:56;14.50;99.90
40053;DHT22;25758;48.200;16.338;2023-04-24T10:00:30;14.40;99.90
40053;DHT22;25758;48.200;16.338;2023-04-24T10:02:57;14.40;99.90
40053;DHT22;25758;48.200;16.338;2023-04-24T10:05:33;14.50;99.90
40053;DHT22;25758;48.200;16.338;2023-04-24T10:08:03;14.50;99.90
40053;DHT22;25758;48.200;16.338;2023-04-24T10:10:33;14.40;99.90
40053;DHT22;25758;48.200;16.338;2023-04-24T10:13:00;14.50;99.90
40053;DHT22;25758;48.200;16.338;2023-04-24T10:15:27;14.50;99.90
40053;DHT22;25758;48.200;16.338;2023-04-24T10:17:53;14.50;99.90
40053;DHT22;25758;48.200;16.338;2023-04-24T10:20:23;14.50;99.90
40053;DHT22;25758;48.200;16.338;2023-04-24T10:22:53;14.50;99.90
40053;DHT22;25758;48.200;16.338;2023-04-24T10:25:25;14.50;99.90
40053;DHT22;25758;48.200;16.338;2023-04-24T10:27:52;14.50;99.90
40053;DHT22;25758;48.200;16.338;2023-04-24T10:30:19;14.50;99.90
40053;DHT22;25758;48.200;16.338;2023-04-24T10:32:45;14.40;99.90
40053;DHT22;25758;48.200;16.338;2023-04-24T10:35:15;14.40;99.90
40053;DHT22;25758;48.200;16.338;2023-04-24T10:37:50;14.30;99.90
40053;DHT22;25758;48.200;16.338;2023-04-24T10:40:18;14.30;99.90
40053;DHT22;25758;48.200;16.338;2023-04-24T10:42:47;14.30;99.90
40053;DHT22;25758;48.200;16.338;2023-04-24T10:45:17;14.40;99.90
40053;DHT22;25758;48.200;16.338;2023-04-24T10:47:51;14.40;99.90
40053;DHT22;25758;48.200;16.338;2023-04-24T10:50:17;14.30;99.90
40053;DHT22;25758;48.200;16.338;2023-04-24T10:52:47;14.30;99.90
40053;DHT22;25758;48.200;16.338;2023-04-24T10:55:14;14.30;99.90
40053;DHT22;25758;48.200;16.338;2023-04-24T10:58:01;14.20;99.90
40053;DHT22;25758;48.200;16.338;2023-04-24T11:00:27;14.20;99.90
40053;DHT22;25758;48.200;16.338;2023-04-24T11:02:53;14.30;99.90
40053;DHT22;25758;48.200;16.338;2023-04-24T11:05:20;14.30;99.90
40053;DHT22;25758;48.200;16.338;2023-04-24T11:08:12;14.20;99.90
40053;DHT22;25758;48.200;16.338;2023-04-24T11:10:45;14.30;99.90
40053;DHT22;25758;48.200;16.338;2023-04-24T11:13:14;14.20;99.90
40053;DHT22;25758;48.200;16.338;2023-04-24T11:15:41;14.30;99.90
40053;DHT22;25758;48.200;16.338;2023-04-24T11:18:13;14.30;99.90
40053;DHT22;25758;48.200;16.338;2023-04-24T11:20:45;14.20;99.90
40053;DHT22;25758;48.200;16.338;2023-04-24T11:23:12;14.30;99.90
40053;DHT22;25758;48.200;16.338;2023-04-24T11:25:38;14.20;99.90
40053;DHT22;25758;48.200;16.338;2023-04-24T11:28:05;14.30;99.90
40053;DHT22;25758;48.200;16.338;2023-04-24T11:30:32;14.30;99.90
40053;DHT22;25758;48.200;16.338;2023-04-24T11:33:03;14.30;99.90
40053;DHT22;25758;48.200;16.338;2023-04-24T11:35:29;14.30;99.90
40053;DHT22;25758;48.200;16.338;2023-04-24T11:38:02;14.30;99.90
40053;DHT22;25758;48.200;16.338;2023-04-24T11:40:28;14.30;99.90
40053;DHT22;25758;48.200;16.338;2023-04-24T11:42:54;14.40;99.90
40053;DHT22;25758;48.200;16.338;2023-04-24T11:45:24;14.30;99.90
40053;DHT22;25758;48.200;16.338;2023-04-24T11:47:50;14.30;99.90
40053;DHT22;25758;48.200;16.338;2023-04-24T11:50:22;14.40;99.90
40053;DHT22;25758;48.200;16.338;2023-04-24T11:52:49;14.40;99.90
40053;DHT22;25758;48.200;16.338;2023-04-24T12:00:16;14.50;99.90
40053;DHT22;25758;48.200;16.338;2023-04-24T12:02:42;14.50;99.90
40053;DHT22;25758;48.200;16.338;2023-04-24T12:05:08;14.60;99.90
40053;DHT22;25758;48.200;16.338;2023-04-24T12:07:41;14.50;99.90
40053;DHT22;25758;48.200;16.338;2023-04-24T12:10:09;14.50;99.90
40053;DHT22;25758;48.200;16.338;2023-04-24T12:12:35;14.60;99.90
40053;DHT22;25758;48.200;16.338;2023-04-24T12:15:01;14.70;99.90
40053;DHT22;25758;48.200;16.338;2023-04-24T12:17:33;14.70;99.90
40053;DHT22;25758;48.200;16.338;2023-04-24T12:20:05;14.80;99.90
40053;DHT22;25758;48.200;16.338;2023-04-24T12:25:16;14.90;99.90
40053;DHT22;25758;48.200;16.338;2023-04-24T12:27:46;14.90;99.90
40053;DHT22;25758;48.200;16.338;2023-04-24T12:30:15;14.90;99.90
40053;DHT22;25758;48.200;16.338;2023-04-24T12:32:45;15.00;99.90
40053;DHT22;25758;48.200;16.338;2023-04-24T12:35:11;15.00;99.90
40053;DHT22;25758;48.200;16.338;2023-04-24T12:37:38;15.00;99.90
40053;DHT22;25758;48.200;16.338;2023-04-24T12:40:09;15.00;99.90
40053;DHT22;25758;48.200;16.338;2023-04-24T12:42:42;15.00;99.90
40053;DHT22;25758;48.200;16.338;2023-04-24T12:45:08;15.10;99.90
40053;DHT22;25758;48.200;16.338;2023-04-24T12:47:34;15.10;99.90
40053;DHT22;25758;48.200;16.338;2023-04-24T12:50:01;15.10;99.90
40053;DHT22;25758;48.200;16.338;2023-04-24T12:52:29;15.10;99.90
40053;DHT22;25758;48.200;16.338;2023-04-24T12:54:57;15.20;99.90
40053;DHT22;25758;48.200;16.338;2023-04-24T12:57:23;15.10;99.90
40053;DHT22;25758;48.200;16.338;2023-04-24T12:59:49;15.20;99.90
40053;DHT22;25758;48.200;16.338;2023-04-24T13:02:16;15.20;99.90
40053;DHT22;25758;48.200;16.338;2023-04-24T13:04:46;15.20;99.90
40053;DHT22;25758;48.200;16.338;2023-04-24T13:07:15;15.20;99.90
40053;DHT22;25758;48.200;16.338;2023-04-24T13:09:42;15.20;99.90
40053;DHT22;25758;48.200;16.338;2023-04-24T13:12:09;15.20;99.90
40053;DHT22;25758;48.200;16.338;2023-04-24T13:14:35;15.20;99.90
40053;DHT22;25758;48.200;16.338;2023-04-24T13:17:00;15.20;99.90
40053;DHT22;25758;48.200;16.338;2023-04-24T13:19:27;15.30;99.90
40053;DHT22;25758;48.200;16.338;2023-04-24T13:21:54;15.30;99.90
40053;DHT22;25758;48.200;16.338;2023-04-24T13:24:21;15.30;99.90
40053;DHT22;25758;48.200;16.338;2023-04-24T13:26:53;15.40;99.90
40053;DHT22;25758;48.200;16.338;2023-04-24T13:29:19;15.40;99.90
40053;DHT22;25758;48.200;16.338;2023-04-24T13:31:46;15.30;99.90
40053;DHT22;25758;48.200;16.338;2023-04-24T13:34:13;15.40;99.90
40053;DHT22;25758;48.200;16.338;2023-04-24T13:36:38;15.40;99.90
40053;DHT22;25758;48.200;16.338;2023-04-24T13:39:05;15.40;99.90
40053;DHT22;25758;48.200;16.338;2023-04-24T13:41:32;15.40;99.90
40053;DHT22;25758;48.200;16.338;2023-04-24T13:43:58;15.50;99.90
40053;DHT22;25758;48.200;16.338;2023-04-24T13:46:23;15.50;99.90
40053;DHT22;25758;48.200;16.338;2023-04-24T13:48:49;15.50;99.90
40053;DHT22;25758;48.200;16.338;2023-04-24T13:51:15;15.40;99.90
40053;DHT22;25758;48.200;16.338;2023-04-24T13:53:40;15.40;99.90
40053;DHT22;25758;48.200;16.338;2023-04-24T13:56:06;15.40;99.90
40053;DHT22;25758;48.200;16.338;2023-04-24T13:58:32;15.40;99.90
40053;DHT22;25758;48.200;16.338;2023-04-24T14:00:58;15.40;99.90
40053;DHT22;25758;48.200;16.338;2023-04-24T14:03:23;15.40;99.90
40053;DHT22;25758;48.200;16.338;2023-04-24T14:05:49;15.30;99.90
40053;DHT22;25758;48.200;16.338;2023-04-24T14:08:15;15.30;99.90
40053;DHT22;25758;48.200;16.338;2023-04-24T14:10:41;15.20;99.90
40053;DHT22;25758;48.200;16.338;2023-04-24T14:13:07;15.20;99.90
40053;DHT22;25758;48.200;16.338;2023-04-24T14:15:35;15.20;99.90
40053;DHT22;25758;48.200;16.338;2023-04-24T14:18:01;15.20;99.90
40053;DHT22;25758;48.200;16.338;2023-04-24T14:20:26;15.20;99.90
40053;DHT22;25758;48.200;16.338;2023-04-24T14:22:52;15.20;99.90
40053;DHT22;25758;48.200;16.338;2023-04-24T14:25:18;15.20;99.90
40053;DHT22;25758;48.200;16.338;2023-04-24T14:27:44;17.10;99.90
40053;DHT22;25758;48.200;16.338;2023-04-24T14:30:12;15.10;99.90
40053;DHT22;25758;48.200;16.338;2023-04-24T14:32:38;15.20;99.90
40053;DHT22;25758;48.200;16.338;2023-04-24T14:35:05;15.20;99.90
40053;DHT22;25758;48.200;16.338;2023-04-24T14:37:32;15.20;99.90
40053;DHT22;25758;48.200;16.338;2023-04-24T14:39:57;15.10;99.90
40053;DHT22;25758;48.200;16.338;2023-04-24T14:42:23;15.20;99.90
40053;DHT22;25758;48.200;16.338;2023-04-24T14:44:49;15.10;99.90
40053;DHT22;25758;48.200;16.338;2023-04-24T14:47:15;15.10;99.90
40053;DHT22;25758;48.200;16.338;2023-04-24T14:49:43;15.10;99.90
40053;DHT22;25758;48.200;16.338;2023-04-24T14:52:09;15.10;99.90
40053;DHT22;25758;48.200;16.338;2023-04-24T14:54:35;15.10;99.90
40053;DHT22;25758;48.200;16.338;2023-04-24T14:57:01;15.10;99.90
40053;DHT22;25758;48.200;16.338;2023-04-24T14:59:28;15.00;99.90
40053;DHT22;25758;48.200;16.338;2023-04-24T15:01:54;15.00;99.90
40053;DHT22;25758;48.200;16.338;2023-04-24T15:04:24;15.00;99.90
40053;DHT22;25758;48.200;16.338;2023-04-24T15:06:51;14.90;99.90
40053;DHT22;25758;48.200;16.338;2023-04-24T15:09:17;14.80;99.90
40053;DHT22;25758;48.200;16.338;2023-04-24T15:11:42;14.80;99.90
40053;DHT22;25758;48.200;16.338;2023-04-24T15:14:08;14.80;99.90
40053;DHT22;25758;48.200;16.338;2023-04-24T15:16:34;14.80;99.90
40053;DHT22;25758;48.200;16.338;2023-04-24T15:18:59;14.80;99.90
40053;DHT22;25758;48.200;16.338;2023-04-24T15:21:25;14.80;99.90